Time;durP1;ratioP1;P1;durP2;ratioP2;P2;SDS_P1;SDS_P2;PMS_P1;PMS_P2;Temp;Humidity;BMP_temperature;BMP_pressure;BME280_temperature;BME280_humidity;BME280_pressure;Samples;Min_cycle;Max_cycle;Signal;HPM_P1;HPM_P2
2022/08/17 00:00:38;;;;;;;;;;;;;;;18.69;100.00;98769.78;5073230;28;20379;-78
2022/08/17 00:03:08;;;;;;;;;;;;;;;18.43;100.00;98774.44;5072193;28;19929;-78
2022/08/17 00:05:41;;;;;;;;;;;;;;;18.53;100.00;98775.13;5072227;28;19929;-78
2022/08/17 00:08:09;;;;;;;;;;;;;;;18.57;100.00;98768.00;5055724;28;19924;-78
2022/08/17 00:10:37;;;;;;;;;;;;;;;18.74;100.00;98771.16;5073015;28;19928;-77
2022/08/17 00:13:06;;;;;;;;;;;;;;;18.89;100.00;98767.09;5071949;28;20050;-77
2022/08/17 00:15:33;;;;;;;;;;;;;;;18.89;100.00;98767.09;5071831;28;19925;-78
2022/08/17 00:18:00;;;;;;;;;;;;;;;18.70;100.00;98767.75;5073216;28;20035;-78
2022/08/17 00:20:27;;;;;;;;;;;;;;;18.75;100.00;98767.09;5071787;28;19925;-78
2022/08/17 00:23:11;;;;;;;;;;;;;;;18.74;100.00;98769.13;5073020;28;20023;-78
2022/08/17 00:25:40;;;;;;;;;;;;;;;18.91;100.00;98764.56;5072858;28;19932;-78
2022/08/17 00:28:08;;;;;;;;;;;;;;;18.60;100.00;98766.28;5072696;28;19932;-78
2022/08/17 00:30:35;;;;;;;;;;;;;;;18.84;100.00;98764.16;5071551;28;19949;-78
2022/08/17 00:33:14;;;;;;;;;;;;;;;18.62;100.00;98770.19;5073149;28;20390;-78
2022/08/17 00:35:44;;;;;;;;;;;;;;;18.63;100.00;98766.06;5072972;28;20450;-78
2022/08/17 00:38:11;;;;;;;;;;;;;;;18.72;100.00;98768.81;5071730;28;20421;-78
2022/08/17 00:40:40;;;;;;;;;;;;;;;18.63;100.00;98771.72;5072527;28;19932;-78
2022/08/17 00:43:24;;;;;;;;;;;;;;;18.84;100.00;98772.66;5071608;28;19924;-78
2022/08/17 00:45:52;;;;;;;;;;;;;;;18.85;100.00;98777.03;5072840;28;19928;-78
2022/08/17 00:48:19;;;;;;;;;;;;;;;18.61;100.00;98774.28;5071394;28;20380;-77
2022/08/17 00:51:13;;;;;;;;;;;;;;;18.76;100.00;98779.97;5071590;28;19935;-78
2022/08/17 00:53:41;;;;;;;;;;;;;;;18.80;100.00;98769.22;5046723;28;20019;-78
2022/08/17 00:56:10;;;;;;;;;;;;;;;18.98;100.00;98777.53;5071249;28;19978;-78
2022/08/17 00:58:38;;;;;;;;;;;;;;;18.82;100.00;98773.16;5074082;28;19924;-78
2022/08/17 01:01:09;;;;;;;;;;;;;;;18.74;100.00;98771.94;5076832;28;19928;-78
2022/08/17 01:03:36;;;;;;;;;;;;;;;18.60;100.00;98778.34;5075721;28;19931;-78
2022/08/17 01:06:04;;;;;;;;;;;;;;;18.38;100.00;98777.91;5075551;28;20390;-78
2022/08/17 01:08:32;;;;;;;;;;;;;;;18.72;100.00;98779.38;5075323;28;19929;-77
2022/08/17 01:11:04;;;;;;;;;;;;;;;18.38;100.00;98777.13;5074839;28;19925;-77
2022/08/17 01:13:33;;;;;;;;;;;;;;;18.18;100.00;98779.75;5075447;28;20031;-78
2022/08/17 01:16:20;;;;;;;;;;;;;;;18.46;100.00;98781.94;5076627;28;19932;-78
2022/08/17 01:18:50;;;;;;;;;;;;;;;18.62;100.00;98775.84;5076531;28;20303;-78
2022/08/17 01:21:25;;;;;;;;;;;;;;;18.50;100.00;98785.38;5076683;28;19924;-78
2022/08/17 01:23:52;;;;;;;;;;;;;;;18.52;100.00;98784.88;5076122;28;19933;-77
2022/08/17 01:26:20;;;;;;;;;;;;;;;18.44;100.00;98789.34;5075066;28;20388;-78
2022/08/17 01:28:47;;;;;;;;;;;;;;;18.39;100.00;98784.38;5075123;28;19928;-78
2022/08/17 01:31:14;;;;;;;;;;;;;;;18.55;100.00;98781.88;5076080;28;19925;-78
2022/08/17 01:33:41;;;;;;;;;;;;;;;18.51;100.00;98775.59;5076346;28;20407;-78
2022/08/17 01:36:08;;;;;;;;;;;;;;;18.68;100.00;98778.75;5076379;28;19925;-78
2022/08/17 01:38:36;;;;;;;;;;;;;;;18.41;100.00;98782.63;5075872;28;19925;-78
2022/08/17 01:41:10;;;;;;;;;;;;;;;18.32;100.00;98784.69;5076405;28;19959;-78
2022/08/17 01:43:43;;;;;;;;;;;;;;;18.60;100.00;98778.34;5076094;28;19924;-78
2022/08/17 01:46:14;;;;;;;;;;;;;;;18.57;100.00;98778.56;5075963;28;20371;-78
2022/08/17 01:48:42;;;;;;;;;;;;;;;18.65;100.00;98777.69;5075896;28;19954;-78
2022/08/17 01:51:09;;;;;;;;;;;;;;;18.35;100.00;98783.72;5075949;28;19966;-77
2022/08/17 01:53:41;;;;;;;;;;;;;;;18.15;100.00;98781.50;5075563;28;19951;-77
2022/08/17 01:56:11;;;;;;;;;;;;;;;18.34;100.00;98785.78;5058077;28;19940;-78
2022/08/17 01:58:38;;;;;;;;;;;;;;;18.12;100.00;98792.97;5075712;28;19924;-78
2022/08/17 02:01:06;;;;;;;;;;;;;;;18.18;100.00;98800.34;5074660;28;19925;-77
2022/08/17 02:03:34;;;;;;;;;;;;;;;18.32;100.00;98796.78;5074458;28;19924;-77
2022/08/17 02:06:01;;;;;;;;;;;;;;;18.14;100.00;98796.91;5075733;28;19932;-77
2022/08/17 02:08:31;;;;;;;;;;;;;;;18.21;100.00;98793.72;5074691;28;19947;-78
2022/08/17 02:10:58;;;;;;;;;;;;;;;18.18;100.00;98796.72;5075447;28;19936;-78
2022/08/17 02:13:28;;;;;;;;;;;;;;;18.11;100.00;98805.56;5074337;28;20364;-77
2022/08/17 02:15:56;;;;;;;;;;;;;;;17.98;100.00;98802.19;5075542;28;19924;-77
2022/08/17 02:18:24;;;;;;;;;;;;;;;18.06;100.00;98800.56;5075410;28;20505;-77
2022/08/17 02:20:51;;;;;;;;;;;;;;;18.18;100.00;98813.69;5074437;28;19925;-77
2022/08/17 02:23:21;;;;;;;;;;;;;;;18.25;100.00;98813.34;5074980;28;20024;-78
2022/08/17 02:25:48;;;;;;;;;;;;;;;18.18;100.00;98813.69;5057599;28;19924;-78
2022/08/17 02:28:16;;;;;;;;;;;;;;;18.15;100.00;98821.09;5075079;28;20390;-77
2022/08/17 02:30:43;;;;;;;;;;;;;;;18.12;100.00;98813.56;5073022;28;20554;-78
2022/08/17 02:33:11;;;;;;;;;;;;;;;18.20;100.00;98822.47;5074953;28;19924;-78
2022/08/17 02:35:38;;;;;;;;;;;;;;;18.30;100.00;98827.59;5073792;28;19925;-78
2022/08/17 02:38:06;;;;;;;;;;;;;;;18.38;100.00;98820.34;5073590;28;20066;-78
2022/08/17 02:40:33;;;;;;;;;;;;;;;17.93;100.00;98826.25;5057160;28;19925;-78
2022/08/17 02:43:00;;;;;;;;;;;;;;;17.99;100.00;98830.00;5075019;28;19947;-78
2022/08/17 02:45:28;;;;;;;;;;;;;;;17.72;100.00;98825.22;5074809;28;19960;-78
2022/08/17 02:47:55;;;;;;;;;;;;;;;17.89;100.00;98825.63;5074776;28;19967;-78
2022/08/17 02:50:23;;;;;;;;;;;;;;;17.77;100.00;98818.94;5074617;28;19924;-78
2022/08/17 02:52:50;;;;;;;;;;;;;;;17.96;100.00;98828.13;5074511;28;19931;-77
2022/08/17 02:55:25;;;;;;;;;;;;;;;17.90;100.00;98822.31;5074577;28;20013;-77
2022/08/17 02:57:53;;;;;;;;;;;;;;;18.11;100.00;98834.63;5074718;28;20372;-77
2022/08/17 03:00:27;;;;;;;;;;;;;;;17.85;100.00;98827.84;5073391;28;19974;-78
2022/08/17 03:02:55;;;;;;;;;;;;;;;18.09;100.00;98837.16;5074559;28;19947;-78
2022/08/17 03:05:24;;;;;;;;;;;;;;;17.51;100.00;98825.47;5072959;28;19931;-77
2022/08/17 03:07:51;;;;;;;;;;;;;;;17.60;100.00;98836.72;5074494;28;19925;-78
2022/08/17 03:10:19;;;;;;;;;;;;;;;18.07;100.00;98836.84;5074499;28;20106;-78
2022/08/17 03:12:46;;;;;;;;;;;;;;;18.29;100.00;98831.69;5073002;28;19924;-77
2022/08/17 03:15:16;;;;;;;;;;;;;;;17.83;100.00;98838.84;5074025;28;19954;-78
2022/08/17 03:17:43;;;;;;;;;;;;;;;18.13;100.00;98840.56;5073269;28;19967;-78
2022/08/17 03:20:11;;;;;;;;;;;;;;;18.22;100.00;98845.41;5073466;28;19924;-78
2022/08/17 03:22:42;;;;;;;;;;;;;;;18.25;100.00;98845.22;5074447;28;20407;-78
2022/08/17 03:25:10;;;;;;;;;;;;;;;18.19;100.00;98844.31;5074117;28;19934;-78
2022/08/17 03:27:37;;;;;;;;;;;;;;;17.98;100.00;98845.34;5072736;28;19928;-78
2022/08/17 03:30:06;;;;;;;;;;;;;;;17.86;100.00;98843.53;5072747;28;19970;-77
2022/08/17 03:32:37;;;;;;;;;;;;;;;17.92;100.00;98841.63;5061004;28;19970;-78
2022/08/17 03:35:05;;;;;;;;;;;;;;;17.90;100.00;98850.59;5073764;28;19924;-77
2022/08/17 03:37:32;;;;;;;;;;;;;;;17.96;100.00;98843.00;5073976;28;19974;-77
2022/08/17 03:39:59;;;;;;;;;;;;;;;18.23;100.00;98856.25;5073846;28;19924;-78
2022/08/17 03:42:27;;;;;;;;;;;;;;;18.36;100.00;98856.00;5073696;28;19928;-77
2022/08/17 03:44:56;;;;;;;;;;;;;;;18.23;100.00;98844.13;5073496;28;19925;-78
2022/08/17 03:58:27;;;;;;;;;;;;;;;18.23;100.00;98866.75;5073412;28;19924;-78
2022/08/17 04:00:54;;;;;;;;;;;;;;;18.17;100.00;98860.97;5073519;28;20448;-78
2022/08/17 04:03:21;;;;;;;;;;;;;;;18.20;100.00;98868.50;5071888;28;19928;-78
2022/08/17 04:05:48;;;;;;;;;;;;;;;18.08;100.00;98868.72;5073144;28;19928;-78
2022/08/17 04:08:15;;;;;;;;;;;;;;;18.17;100.00;98869.47;5072174;28;20442;-78
2022/08/17 04:10:41;;;;;;;;;;;;;;;18.07;100.00;98864.34;5073505;28;19932;-78
2022/08/17 04:13:08;;;;;;;;;;;;;;;18.12;100.00;98861.63;5071977;28;19924;-78
2022/08/17 04:15:36;;;;;;;;;;;;;;;18.15;100.00;98871.97;5073106;28;20011;-78
2022/08/17 04:18:03;;;;;;;;;;;;;;;17.90;100.00;98880.91;5072810;28;19931;-78
2022/08/17 04:20:32;;;;;;;;;;;;;;;18.01;100.00;98874.75;5071997;28;19925;-78
2022/08/17 04:23:03;;;;;;;;;;;;;;;17.91;100.00;98883.25;5073173;28;19931;-78
2022/08/17 04:25:32;;;;;;;;;;;;;;;17.96;100.00;98879.75;5073222;28;19924;-78
2022/08/17 04:28:00;;;;;;;;;;;;;;;18.25;100.00;98886.88;5071596;28;20267;-78
2022/08/17 04:30:28;;;;;;;;;;;;;;;17.99;100.00;98892.16;5072830;28;20019;-78
2022/08/17 04:33:01;;;;;;;;;;;;;;;17.97;100.00;98889.03;5071971;28;19924;-78
2022/08/17 04:35:30;;;;;;;;;;;;;;;18.07;100.00;98890.53;5071831;28;19968;-78
2022/08/17 04:37:57;;;;;;;;;;;;;;;17.89;100.00;98901.94;5072826;28;19924;-78
2022/08/17 04:43:11;;;;;;;;;;;;;;;17.85;100.00;98904.16;5072967;28;19925;-78
2022/08/17 04:45:41;;;;;;;;;;;;;;;17.76;100.00;98907.81;5071747;28;19928;-78
2022/08/17 04:48:08;;;;;;;;;;;;;;;17.64;100.00;98913.63;5072576;28;19929;-78
2022/08/17 04:50:38;;;;;;;;;;;;;;;17.76;100.00;98912.66;5072761;28;19931;-78
2022/08/17 04:53:06;;;;;;;;;;;;;;;17.86;100.00;98914.19;5071625;28;19932;-78
2022/08/17 04:55:33;;;;;;;;;;;;;;;17.83;100.00;98903.84;5072750;28;20284;-78
2022/08/17 04:58:01;;;;;;;;;;;;;;;17.96;100.00;98910.09;5072956;28;19930;-78
2022/08/17 05:00:28;;;;;;;;;;;;;;;17.58;100.00;98915.53;5071496;28;19929;-78
2022/08/17 05:02:55;;;;;;;;;;;;;;;17.49;100.00;98915.56;5072569;28;19925;-78
2022/08/17 05:05:23;;;;;;;;;;;;;;;17.45;100.00;98909.25;5072567;28;20294;-78
2022/08/17 05:07:51;;;;;;;;;;;;;;;17.33;100.00;98918.66;5072639;28;19924;-78
2022/08/17 05:10:20;;;;;;;;;;;;;;;17.15;100.00;98916.66;5072607;28;20372;-78
2022/08/17 05:12:55;;;;;;;;;;;;;;;17.27;100.00;98914.91;5071407;28;20005;-78
2022/08/17 05:15:22;;;;;;;;;;;;;;;17.19;100.00;98919.31;5069641;28;20386;-78
2022/08/17 05:17:50;;;;;;;;;;;;;;;17.39;100.00;98920.41;5071282;28;19924;-78
2022/08/17 05:20:17;;;;;;;;;;;;;;;17.25;100.00;98931.56;5054628;28;19932;-78
2022/08/17 05:22:49;;;;;;;;;;;;;;;17.37;100.00;98930.59;5072600;28;19934;-78
2022/08/17 05:25:24;;;;;;;;;;;;;;;17.14;100.00;98936.88;5072491;28;19925;-78
2022/08/17 05:27:52;;;;;;;;;;;;;;;17.09;100.00;98943.94;5071410;28;19983;-78
2022/08/17 05:30:20;;;;;;;;;;;;;;;16.76;100.00;98947.81;5070773;28;19928;-78
2022/08/17 05:32:57;;;;;;;;;;;;;;;16.78;100.00;98936.88;5070135;28;19932;-78
2022/08/17 05:35:26;;;;;;;;;;;;;;;16.79;100.00;98942.03;5072336;28;19925;-78
2022/08/17 05:37:53;;;;;;;;;;;;;;;17.31;100.00;98935.31;5072424;28;20295;-78
2022/08/17 05:40:21;;;;;;;;;;;;;;;17.34;100.00;98942.84;5072293;28;19980;-77
2022/08/17 05:42:48;;;;;;;;;;;;;;;17.57;100.00;98951.47;5071070;28;19931;-78
2022/08/17 05:45:17;;;;;;;;;;;;;;;17.12;100.00;98950.69;5075464;28;19925;-77
2022/08/17 05:47:45;;;;;;;;;;;;;;;16.84;100.00;98951.94;5074628;28;19931;-78
2022/08/17 05:50:20;;;;;;;;;;;;;;;16.76;100.00;98947.81;5076067;28;19924;-78
2022/08/17 05:53:10;;;;;;;;;;;;;;;16.66;100.00;98957.53;5075891;28;19924;-78
2022/08/17 05:56:10;;;;;;;;;;;;;;;17.18;100.00;98957.25;5074263;28;20323;-78
2022/08/17 05:58:52;;;;;;;;;;;;;;;16.99;100.00;98950.06;5052878;28;19925;-78
2022/08/17 06:01:25;;;;;;;;;;;;;;;17.06;100.00;98959.00;5074331;28;20023;-78
2022/08/17 06:04:11;;;;;;;;;;;;;;;16.99;100.00;98959.31;5075878;28;19954;-78
2022/08/17 06:06:56;;;;;;;;;;;;;;;16.73;100.00;98954.41;5075461;28;19925;-78
2022/08/17 06:09:26;;;;;;;;;;;;;;;17.02;100.00;98955.56;5074401;28;20244;-78
2022/08/17 06:12:15;;;;;;;;;;;;;;;17.10;100.00;98953.97;5057822;28;19925;-78
2022/08/17 06:15:01;;;;;;;;;;;;;;;16.76;100.00;98956.28;5075091;28;19970;-78
2022/08/17 06:17:28;;;;;;;;;;;;;;;16.72;100.00;98958.50;5075563;28;19924;-78
2022/08/17 06:19:58;;;;;;;;;;;;;;;16.88;100.00;98966.66;5074104;28;20429;-78
2022/08/17 06:22:28;;;;;;;;;;;;;;;17.04;100.00;98957.91;5074381;28;20288;-78
2022/08/17 06:24:59;;;;;;;;;;;;;;;17.11;100.00;98963.22;5075335;28;19931;-78
2022/08/17 06:27:33;;;;;;;;;;;;;;;17.35;100.00;98959.31;5074009;28;20011;-78
2022/08/17 06:30:07;;;;;;;;;;;;;;;17.34;100.00;98952.09;5073871;28;19925;-78
2022/08/17 06:32:40;;;;;;;;;;;;;;;16.96;100.00;98968.72;5075079;28;20013;-78
2022/08/17 06:35:09;;;;;;;;;;;;;;;17.22;100.00;98963.56;5075109;28;20339;-78
2022/08/17 06:37:55;;;;;;;;;;;;;;;17.47;100.00;98966.06;5073909;28;19936;-78
2022/08/17 06:40:38;;;;;;;;;;;;;;;17.40;100.00;98974.84;5075159;28;20391;-78
2022/08/17 06:43:11;;;;;;;;;;;;;;;16.83;100.00;98965.25;5073417;28;20373;-78
2022/08/17 06:45:58;;;;;;;;;;;;;;;17.05;100.00;98982.06;5075151;28;19925;-78
2022/08/17 06:48:25;;;;;;;;;;;;;;;16.90;100.00;98981.09;5074660;28;19924;-78
2022/08/17 06:50:58;;;;;;;;;;;;;;;17.12;100.00;98988.19;5075063;28;20395;-78
2022/08/17 06:53:28;;;;;;;;;;;;;;;16.96;100.00;98973.56;5073624;28;19970;-78
2022/08/17 06:56:09;;;;;;;;;;;;;;;17.28;100.00;98984.28;5072743;28;19932;-78
2022/08/17 06:58:37;;;;;;;;;;;;;;;16.88;100.00;98983.59;5073346;28;19934;-78
2022/08/17 07:01:08;;;;;;;;;;;;;;;16.98;100.00;98988.00;5056967;28;19924;-78
2022/08/17 07:03:44;;;;;;;;;;;;;;;16.91;100.00;98999.59;5074657;28;20026;-78
2022/08/17 07:06:13;;;;;;;;;;;;;;;17.05;100.00;98999.00;5073406;28;19962;-78
2022/08/17 07:08:46;;;;;;;;;;;;;;;17.00;100.00;99008.06;5074446;28;19928;-78
2022/08/17 07:11:19;;;;;;;;;;;;;;;16.94;100.00;98999.44;5073197;28;19925;-78
2022/08/17 07:13:52;;;;;;;;;;;;;;;16.85;100.00;99009.91;5074263;28;19925;-78
2022/08/17 07:16:40;;;;;;;;;;;;;;;17.01;100.00;99013.25;5072934;28;20028;-78
2022/08/17 07:19:07;;;;;;;;;;;;;;;17.07;100.00;99007.78;5074597;28;20035;-78
2022/08/17 07:21:41;;;;;;;;;;;;;;;16.88;100.00;99017.44;5074320;28;19924;-78
2022/08/17 07:24:08;;;;;;;;;;;;;;;16.97;100.00;99025.94;5074171;28;20066;-78
2022/08/17 07:26:37;;;;;;;;;;;;;;;17.01;100.00;99026.59;5073731;28;19986;-78
2022/08/17 07:29:05;;;;;;;;;;;;;;;17.05;100.00;99028.00;5074181;28;20375;-78
2022/08/17 07:31:32;;;;;;;;;;;;;;;17.10;100.00;99029.44;5073972;28;20433;-78
2022/08/17 07:34:13;;;;;;;;;;;;;;;17.30;100.00;99024.88;5073920;28;19932;-78
2022/08/17 07:36:41;;;;;;;;;;;;;;;17.43;100.00;99031.19;5073813;28;19935;-78
2022/08/17 07:39:09;;;;;;;;;;;;;;;16.85;100.00;99035.31;5073831;28;19931;-78
2022/08/17 07:41:38;;;;;;;;;;;;;;;16.83;100.00;99032.97;5073582;28;19931;-78
2022/08/17 07:44:14;;;;;;;;;;;;;;;17.19;100.00;99040.72;5072628;28;20501;-78
2022/08/17 07:49:36;;;;;;;;;;;;;;;17.28;100.00;99047.16;5073711;28;19931;-78
2022/08/17 07:52:08;;;;;;;;;;;;;;;17.44;100.00;99048.94;5072601;28;19925;-78
2022/08/17 07:54:37;;;;;;;;;;;;;;;17.13;100.00;99051.06;5072167;28;20185;-78
2022/08/17 07:57:13;;;;;;;;;;;;;;;16.74;100.00;99049.06;5073234;28;20299;-78
2022/08/17 07:59:58;;;;;;;;;;;;;;;16.96;100.00;99044.94;5072344;28;19974;-78
2022/08/17 08:02:33;;;;;;;;;;;;;;;17.17;100.00;99046.84;5072312;28;20030;-78
2022/08/17 08:05:12;;;;;;;;;;;;;;;17.22;100.00;99049.03;5073423;28;19935;-78
2022/08/17 08:07:54;;;;;;;;;;;;;;;17.14;100.00;99047.00;5072139;28;19924;-78
2022/08/17 08:10:27;;;;;;;;;;;;;;;17.62;100.00;99048.94;5073034;28;20022;-78
2022/08/17 08:13:13;;;;;;;;;;;;;;;17.56;100.00;99045.97;5073284;28;19924;-79
2022/08/17 08:15:47;;;;;;;;;;;;;;;17.69;100.00;99038.09;5074234;28;19967;-80
2022/08/17 08:18:19;;;;;;;;;;;;;;;17.29;100.00;99047.94;5072892;28;19924;-80
2022/08/17 08:20:49;;;;;;;;;;;;;;;17.16;100.00;99041.66;5074375;28;19924;-79
2022/08/17 08:23:19;;;;;;;;;;;;;;;17.65;100.00;99048.78;5073133;28;19956;-80
2022/08/17 08:25:47;;;;;;;;;;;;;;;16.94;100.00;99050.25;5055613;28;20364;-79
2022/08/17 08:28:19;;;;;;;;;;;;;;;17.23;100.00;99044.97;5074113;28;20422;-79
2022/08/17 08:30:52;;;;;;;;;;;;;;;17.06;100.00;99045.72;5074421;28;20251;-79
2022/08/17 08:33:42;;;;;;;;;;;;;;;17.37;100.00;99054.88;5073763;28;19925;-79
2022/08/17 08:36:12;;;;;;;;;;;;;;;17.46;100.00;99057.72;5048678;28;19994;-80
2022/08/17 08:38:55;;;;;;;;;;;;;;;17.12;100.00;99057.94;5072573;28;19978;-80
2022/08/17 08:41:42;;;;;;;;;;;;;;;16.78;100.00;99063.84;5054699;28;19924;-79
2022/08/17 08:44:09;;;;;;;;;;;;;;;17.12;100.00;99063.59;5088626;28;20331;-79
2022/08/17 08:46:49;;;;;;;;;;;;;;;17.27;100.00;99053.28;5072655;28;19963;-79
2022/08/17 08:49:22;;;;;;;;;;;;;;;17.48;100.00;99050.34;5073499;28;19925;-79
2022/08/17 08:52:01;;;;;;;;;;;;;;;17.21;100.00;99058.75;5073729;28;19924;-79
2022/08/17 08:54:37;;;;;;;;;;;;;;;17.27;100.00;99061.75;5073455;28;19924;-79
2022/08/17 08:57:10;;;;;;;;;;;;;;;17.56;100.00;99056.47;5073614;28;20382;-79
2022/08/17 08:59:48;;;;;;;;;;;;;;;17.82;100.00;99063.38;5073618;28;19924;-79
2022/08/17 09:02:32;;;;;;;;;;;;;;;17.87;100.00;99060.69;5073246;28;20372;-79
2022/08/17 09:05:18;;;;;;;;;;;;;;;17.96;100.00;99068.38;5054032;28;19978;-78
2022/08/17 09:07:57;;;;;;;;;;;;;;;18.03;100.00;99051.09;5072056;28;19925;-79
2022/08/17 09:10:29;;;;;;;;;;;;;;;17.70;100.00;99059.47;5073658;28;19932;-79
2022/08/17 09:13:09;;;;;;;;;;;;;;;18.35;100.00;99060.91;5072201;28;19945;-78
2022/08/17 09:15:40;;;;;;;;;;;;;;;18.15;100.00;99060.63;5072143;28;19925;-77
2022/08/17 09:18:08;;;;;;;;;;;;;;;18.08;100.00;99052.50;5073497;28;19931;-78
2022/08/17 09:21:16;;;;;;;;;;;;;;;18.19;100.00;99064.88;5077352;28;20019;-76
2022/08/17 09:23:50;;;;;;;;;;;;;;;17.88;100.00;99047.34;5075775;28;19924;-77
2022/08/17 09:26:23;;;;;;;;;;;;;;;18.44;100.00;99052.41;5077144;28;19955;-77
2022/08/17 09:28:54;;;;;;;;;;;;;;;18.56;100.00;99060.72;5077104;28;19925;-77
2022/08/17 09:31:26;;;;;;;;;;;;;;;18.40;100.00;99052.59;5077293;28;19943;-77
2022/08/17 09:33:58;;;;;;;;;;;;;;;18.46;100.00;99059.19;5074100;28;19967;-77
2022/08/17 09:36:30;;;;;;;;;;;;;;;18.32;100.00;99062.66;5076585;28;19924;-78
2022/08/17 09:39:06;;;;;;;;;;;;;;;18.22;100.00;99061.09;5076874;28;19924;-78
2022/08/17 09:41:40;;;;;;;;;;;;;;;18.59;100.00;99068.25;5077080;28;20279;-78
2022/08/17 09:44:12;;;;;;;;;;;;;;;18.14;100.00;99062.69;5076884;28;19931;-78
2022/08/17 09:46:44;;;;;;;;;;;;;;;18.66;100.00;99075.63;5092994;28;20432;-78
2022/08/17 09:49:18;;;;;;;;;;;;;;;18.93;100.00;99062.09;5076766;28;19935;-78
2022/08/17 09:51:54;;;;;;;;;;;;;;;18.99;100.00;99065.84;5075843;28;20014;-78
2022/08/17 09:54:32;;;;;;;;;;;;;;;19.00;100.00;99056.09;5076874;28;20318;-78
2022/08/17 09:57:28;;;;;;;;;;;;;;;19.05;100.00;99046.16;5076558;28;19928;-78
2022/08/17 10:00:15;;;;;;;;;;;;;;;19.48;100.00;99057.69;5075587;28;20028;-78
2022/08/17 10:03:01;;;;;;;;;;;;;;;19.39;100.00;99065.47;5075571;28;20015;-78
2022/08/17 10:05:28;;;;;;;;;;;;;;;19.73;100.00;99064.09;5076774;28;20331;-79
2022/08/17 10:08:08;;;;;;;;;;;;;;;19.67;100.00;99064.78;5075884;28;20139;-79
2022/08/17 10:10:41;;;;;;;;;;;;;;;19.34;100.00;99061.25;5075528;28;19969;-78
2022/08/17 10:13:18;;;;;;;;;;;;;;;19.57;100.00;99066.13;5075343;28;19978;-79
2022/08/17 10:15:57;;;;;;;;;;;;;;;19.63;100.00;99069.84;5075410;28;19931;-78
2022/08/17 10:18:45;;;;;;;;;;;;;;;19.56;100.00;99063.78;5075589;28;20398;-79
2022/08/17 10:27:22;;;;;;;;;;;;;;;19.51;100.00;99070.91;5033109;28;19925;-78
2022/08/17 10:29:52;;;;;;;;;;;;;;;19.75;100.00;99075.75;5015642;28;20265;-78
2022/08/17 10:32:31;;;;;;;;;;;;;;;19.75;100.00;99068.00;5032800;28;20019;-78
2022/08/17 10:35:02;;;;;;;;;;;;;;;20.20;100.00;99064.81;5032591;28;19933;-79
2022/08/17 10:37:32;;;;;;;;;;;;;;;20.13;100.00;99067.25;5032980;28;19929;-78
2022/08/17 10:40:17;;;;;;;;;;;;;;;20.14;100.00;99057.44;5032712;28;19925;-78
2022/08/17 10:42:49;;;;;;;;;;;;;;;19.84;100.00;99065.13;5033034;28;20004;-78
2022/08/17 10:45:18;;;;;;;;;;;;;;;20.26;100.00;99059.22;5032599;28;19933;-78
2022/08/17 10:47:58;;;;;;;;;;;;;;;20.02;100.00;99055.66;5016101;28;19948;-78
2022/08/17 10:50:43;;;;;;;;;;;;;;;20.85;100.00;99057.88;5032635;28;20078;-79
2022/08/17 10:53:30;;;;;;;;;;;;;;;20.68;100.00;99062.50;5032610;28;19929;-78
2022/08/17 10:56:10;;;;;;;;;;;;;;;20.31;100.00;99067.06;5032383;28;19925;-78
2022/08/17 10:58:50;;;;;;;;;;;;;;;20.59;100.00;99062.63;5015817;28;20278;-78
2022/08/17 11:01:17;;;;;;;;;;;;;;;20.12;100.00;99054.28;5064788;28;20303;-78
2022/08/17 11:03:53;;;;;;;;;;;;;;;19.97;100.00;99059.16;5073524;28;20298;-79
2022/08/17 11:06:41;;;;;;;;;;;;;;;20.28;100.00;99062.34;5075426;28;19974;-78
2022/08/17 11:09:18;;;;;;;;;;;;;;;20.18;100.00;99075.84;5074184;28;19928;-78
2022/08/17 11:11:46;;;;;;;;;;;;;;;20.41;100.00;99071.34;5075372;28;19924;-79
2022/08/17 11:14:36;;;;;;;;;;;;;;;20.48;100.00;99066.06;5075308;28;20268;-79
2022/08/17 11:17:34;;;;;;;;;;;;;;;20.39;100.00;99082.38;5074619;28;19925;-79
2022/08/17 11:20:53;;;;;;;;;;;;;;;20.06;100.00;99087.44;5074273;28;19932;-78
2022/08/17 11:23:29;;;;;;;;;;;;;;;20.22;100.00;99087.00;5075140;28;19924;-78
2022/08/17 11:25:57;;;;;;;;;;;;;;;19.89;100.00;99097.69;5073683;28;20340;-79
2022/08/17 11:28:27;;;;;;;;;;;;;;;20.38;100.00;99090.16;5075046;28;19947;-79
2022/08/17 11:31:00;;;;;;;;;;;;;;;20.04;100.00;99098.50;5075008;28;19931;-78
2022/08/17 11:33:33;;;;;;;;;;;;;;;20.42;100.00;99092.75;5072183;28;19924;-79
2022/08/17 11:36:24;;;;;;;;;;;;;;;19.98;100.00;99094.78;5056873;28;19924;-79
2022/08/17 11:38:57;;;;;;;;;;;;;;;20.45;100.00;99100.28;5074619;28;19971;-79
2022/08/17 11:41:26;;;;;;;;;;;;;;;20.37;100.00;99110.50;5056675;28;20424;-79
2022/08/17 11:44:09;;;;;;;;;;;;;;;20.83;100.00;99105.84;5074628;28;19932;-79
2022/08/17 11:52:36;;;;;;;;;;;;;;;20.41;100.00;99111.88;5074363;28;19924;-78
2022/08/17 11:55:03;;;;;;;;;;;;;;;20.82;100.00;99102.25;5056548;28;20253;-78
2022/08/17 11:57:45;;;;;;;;;;;;;;;20.98;100.00;99106.63;5074181;28;19924;-79
2022/08/17 12:00:30;;;;;;;;;;;;;;;21.30;100.00;99102.72;5074384;28;19929;-78
2022/08/17 12:03:21;;;;;;;;;;;;;;;20.75;100.00;99102.63;5074057;28;19982;-78
2022/08/17 12:05:49;;;;;;;;;;;;;;;21.06;100.00;99097.22;5056554;28;19962;-78
2022/08/17 12:08:20;;;;;;;;;;;;;;;21.12;100.00;99091.63;5074008;28;19931;-78
2022/08/17 12:11:07;;;;;;;;;;;;;;;21.23;100.00;99091.78;5074286;28;20026;-78
2022/08/17 12:13:44;;;;;;;;;;;;;;;21.09;100.00;99089.78;5073907;28;19931;-78
2022/08/17 12:16:16;;;;;;;;;;;;;;;21.10;100.00;99086.44;5073835;28;20280;-78
2022/08/17 12:18:57;;;;;;;;;;;;;;;21.12;100.00;99089.56;5056053;28;19931;-78
2022/08/17 12:21:30;;;;;;;;;;;;;;;21.49;100.00;99087.00;5056077;28;20020;-78
2022/08/17 12:24:15;;;;;;;;;;;;;;;21.35;100.00;99085.78;5074026;28;19925;-78
2022/08/17 12:26:49;;;;;;;;;;;;;;;21.60;100.00;99069.28;5055986;28;19928;-78
2022/08/17 12:29:16;;;;;;;;;;;;;;;21.84;100.00;99078.41;5089722;28;19970;-76
2022/08/17 12:31:46;;;;;;;;;;;;;;;21.77;100.00;99079.59;5073568;28;19931;-78
2022/08/17 12:34:18;;;;;;;;;;;;;;;21.98;100.00;99072.59;5073532;28;19932;-78
2022/08/17 12:36:49;;;;;;;;;;;;;;;21.73;100.00;99075.38;5073780;28;19989;-78
2022/08/17 12:39:20;;;;;;;;;;;;;;;21.92;100.00;99062.44;5055744;28;19925;-79
2022/08/17 12:41:49;;;;;;;;;;;;;;;22.32;100.00;99065.19;5055787;28;20024;-78
2022/08/17 12:44:18;;;;;;;;;;;;;;;22.48;100.00;99075.94;5073557;28;19970;-79
2022/08/17 12:46:48;;;;;;;;;;;;;;;22.08;100.00;99071.19;5073271;28;19924;-79
2022/08/17 12:49:28;;;;;;;;;;;;;;;21.96;100.00;99074.41;5055865;28;20023;-79
2022/08/17 12:52:15;;;;;;;;;;;;;;;22.45;100.00;99066.38;5072729;28;20343;-79
2022/08/17 12:54:51;;;;;;;;;;;;;;;22.69;100.00;99066.84;5055044;28;19928;-79
2022/08/17 12:57:32;;;;;;;;;;;;;;;22.74;100.00;99059.63;5073383;28;19924;-79
2022/08/17 13:00:16;;;;;;;;;;;;;;;22.45;100.00;99066.38;5055559;28;19924;-79
2022/08/17 13:02:48;;;;;;;;;;;;;;;22.33;100.00;99061.84;5055698;28;19946;-80
2022/08/17 13:05:19;;;;;;;;;;;;;;;22.27;100.00;99072.41;5073631;28;20375;-79
2022/08/17 13:07:46;;;;;;;;;;;;;;;22.61;100.00;99059.28;5073541;28;19928;-80
2022/08/17 13:10:18;;;;;;;;;;;;;;;22.44;100.00;99061.97;5073675;28;20275;-80
2022/08/17 13:12:48;;;;;;;;;;;;;;;22.33;100.00;99063.91;5073299;28;19924;-80
2022/08/17 13:15:19;;;;;;;;;;;;;;;22.28;100.00;99065.41;5073233;28;19924;-79
2022/08/17 13:18:05;;;;;;;;;;;;;;;23.00;100.00;99051.81;5073358;28;19925;-79
2022/08/17 13:20:33;;;;;;;;;;;;;;;22.79;100.00;99050.38;5055569;28;19936;-79
2022/08/17 13:23:02;;;;;;;;;;;;;;;22.76;100.00;99046.47;5053910;28;19928;-79
2022/08/17 13:25:31;;;;;;;;;;;;;;;22.73;100.00;99050.31;5073264;28;19956;-79
2022/08/17 13:27:58;;;;;;;;;;;;;;;22.52;100.00;99048.09;5073126;28;19925;-79
2022/08/17 13:30:27;;;;;;;;;;;;;;;22.39;100.00;99045.59;5072576;28;20013;-79
2022/08/17 13:32:55;;;;;;;;;;;;;;;22.84;100.00;99044.69;5070824;28;19925;-79